createdAt,value
2023-01-12T00:00:28.864Z,102156.10
2023-01-12T00:03:34.311Z,102140.91
2023-01-12T00:06:39.390Z,102146.07
2023-01-12T00:09:44.891Z,102139.95
2023-01-12T00:12:52.999Z,102143.02
2023-01-12T00:16:17.658Z,102153.05
2023-01-12T00:19:33.854Z,102158.64
2023-01-12T00:22:42.014Z,102156.25
2023-01-12T00:25:48.162Z,102147.30
2023-01-12T00:28:54.655Z,102144.52
2023-01-12T00:32:01.385Z,102146.26
2023-01-12T00:35:09.786Z,102142.84
2023-01-12T00:38:16.152Z,102138.69
2023-01-12T00:41:42.971Z,102133.53
2023-01-12T00:45:08.601Z,102126.95
2023-01-12T00:48:14.750Z,102130.45
2023-01-12T00:51:20.717Z,102128.80
2023-01-12T00:54:27.378Z,102129.26
2023-01-12T00:57:33.490Z,102123.75
2023-01-12T01:00:39.008Z,102130.61
2023-01-12T01:03:45.232Z,102135.80
2023-01-12T01:06:54.654Z,102136.70
2023-01-12T01:10:00.609Z,102134.68
2023-01-12T01:13:06.913Z,102132.15
2023-01-12T01:16:17.264Z,102146.28
2023-01-12T01:19:24.159Z,102137.59
2023-01-12T01:22:30.022Z,102122.05
2023-01-12T01:25:34.914Z,102129.84
2023-01-12T01:28:40.447Z,102131.03
2023-01-12T01:31:46.376Z,102128.22
2023-01-12T01:34:53.229Z,102117.85
2023-01-12T01:38:00.302Z,102134.82
2023-01-12T01:41:06.569Z,102135.02
2023-01-12T01:44:14.736Z,102135.55
2023-01-12T01:47:22.793Z,102135.57
2023-01-12T01:50:33.140Z,102129.56
2023-01-12T01:53:39.918Z,102126.61
2023-01-12T01:56:45.023Z,102121.30
2023-01-12T01:59:51.211Z,102115.05
2023-01-12T02:02:56.918Z,102116.55
2023-01-12T02:06:02.598Z,102111.44
2023-01-12T02:09:26.379Z,102114.27
2023-01-12T02:12:49.784Z,102113.84
2023-01-12T02:16:32.183Z,102111.01
2023-01-12T02:20:13.863Z,102115.93
2023-01-12T02:23:51.741Z,102120.48
2023-01-12T02:27:41.933Z,102123.65
2023-01-12T02:31:37.706Z,102113.20
2023-01-12T02:34:55.251Z,102115.29
2023-01-12T02:38:33.387Z,102120.44
2023-01-12T02:42:15.195Z,102118.30
2023-01-12T02:45:34.394Z,102126.76
2023-01-12T02:49:11.374Z,102132.91
2023-01-12T02:52:21.983Z,102120.27
2023-01-12T02:55:28.121Z,102133.22
2023-01-12T02:58:34.054Z,102133.09
2023-01-12T03:01:42.519Z,102136.46
2023-01-12T03:04:49.771Z,102126.44
2023-01-12T03:08:11.476Z,102122.42
2023-01-12T03:11:29.733Z,102120.98
2023-01-12T03:14:35.054Z,102116.13
2023-01-12T03:17:47.198Z,102119.34
2023-01-12T03:21:00.293Z,102117.31
2023-01-12T03:24:14.272Z,102116.08
2023-01-12T03:27:28.884Z,102106.55
2023-01-12T03:30:52.310Z,102117.66
2023-01-12T03:33:59.867Z,102102.16
2023-01-12T03:37:27.963Z,102101.13
2023-01-12T03:40:48.014Z,102104.05
2023-01-12T03:43:57.636Z,102102.19
2023-01-12T03:47:12.151Z,102102.98
2023-01-12T03:50:31.215Z,102101.45
2023-01-12T03:53:38.091Z,102097.23
2023-01-12T03:56:46.152Z,102088.39
2023-01-12T03:59:52.286Z,102088.44
2023-01-12T04:02:59.364Z,102090.45
2023-01-12T04:06:05.124Z,102101.80
2023-01-12T04:09:10.891Z,102089.64
2023-01-12T04:12:17.632Z,102092.93
2023-01-12T04:15:24.660Z,102080.88
2023-01-12T04:18:29.453Z,102075.84
2023-01-12T04:21:52.249Z,102068.55
2023-01-12T04:24:58.364Z,102063.77
2023-01-12T04:28:10.748Z,102056.36
2023-01-12T04:31:17.348Z,102058.32
2023-01-12T04:34:22.663Z,102054.87
2023-01-12T04:37:28.131Z,102052.02
2023-01-12T04:40:33.719Z,102054.09
2023-01-12T04:43:40.166Z,102051.01
2023-01-12T04:46:46.529Z,102044.81
2023-01-12T04:49:52.135Z,102050.58
2023-01-12T04:52:57.827Z,102049.50
2023-01-12T04:56:02.971Z,102051.05
2023-01-12T04:59:13.743Z,102051.77
2023-01-12T05:02:19.604Z,102047.75
2023-01-12T05:05:24.389Z,102041.27
2023-01-12T05:08:47.848Z,102044.64
2023-01-12T05:11:53.280Z,102035.42
2023-01-12T05:14:59.426Z,102039.77
2023-01-12T05:18:05.973Z,102039.60
2023-01-12T05:21:12.794Z,102026.77
2023-01-12T05:24:18.623Z,102028.99
2023-01-12T05:27:25.198Z,102034.56
2023-01-12T05:30:33.263Z,102029.98
2023-01-12T05:33:39.190Z,102029.51
2023-01-12T05:36:45.149Z,102031.80
2023-01-12T05:39:50.301Z,102031.41
2023-01-12T05:43:14.403Z,102027.28
2023-01-12T05:46:20.157Z,102017.13
2023-01-12T05:49:27.089Z,102010.35
2023-01-12T05:52:32.577Z,102009.30
2023-01-12T05:55:39.757Z,102013.54
2023-01-12T05:58:46.562Z,102016.38
2023-01-12T06:01:52.047Z,102026.45
2023-01-12T06:04:59.221Z,102017.23
2023-01-12T06:08:08.727Z,102017.13
2023-01-12T06:11:24.080Z,102020.53
2023-01-12T06:14:30.467Z,102021.66
2023-01-12T06:17:29.527Z,102015.73
2023-01-12T06:20:35.457Z,102020.19
2023-01-12T06:23:40.927Z,102013.05
2023-01-12T06:26:46.917Z,102023.75
2023-01-12T06:29:53.132Z,102023.94
2023-01-12T06:33:10.199Z,102021.77
2023-01-12T06:36:17.811Z,102011.70
2023-01-12T06:39:27.762Z,102006.35
2023-01-12T06:42:36.294Z,102014.00
2023-01-12T06:45:41.755Z,102010.48
2023-01-12T06:48:47.022Z,102005.34
2023-01-12T06:51:52.182Z,102005.45
2023-01-12T06:55:01.860Z,102002.05
2023-01-12T06:58:08.079Z,102004.11
2023-01-12T07:01:20.403Z,102011.04
2023-01-12T07:04:28.787Z,102018.95
2023-01-12T07:07:37.299Z,102013.99
2023-01-12T07:10:45.588Z,102009.30
2023-01-12T07:14:09.308Z,102008.02
2023-01-12T07:17:15.637Z,102010.56
2023-01-12T07:20:24.428Z,102007.05
2023-01-12T07:23:31.649Z,102006.13
2023-01-12T07:26:39.012Z,101996.23
2023-01-12T07:29:46.540Z,102002.10
2023-01-12T07:32:55.578Z,102004.40
2023-01-12T07:36:01.683Z,102007.51
2023-01-12T07:39:07.467Z,102005.28
2023-01-12T07:42:33.491Z,102004.99
2023-01-12T07:45:50.580Z,102001.94
2023-01-12T07:49:02.755Z,102004.94
2023-01-12T07:52:11.127Z,102010.38
2023-01-12T07:55:20.736Z,102012.03
2023-01-12T07:58:28.856Z,102006.68
2023-01-12T08:01:35.283Z,102013.16
2023-01-12T08:04:42.973Z,102004.16
2023-01-12T08:08:04.053Z,102011.14
2023-01-12T08:11:19.158Z,102001.81
2023-01-12T08:14:24.987Z,101998.19
2023-01-12T08:17:36.456Z,101985.67
2023-01-12T08:20:46.011Z,101983.38
2023-01-12T08:23:58.923Z,101993.73
2023-01-12T08:27:05.949Z,101991.41
2023-01-12T08:30:15.089Z,101993.86
2023-01-12T08:33:22.607Z,101982.14
2023-01-12T08:36:29.030Z,101981.89
2023-01-12T08:39:37.912Z,101984.97
2023-01-12T08:42:44.181Z,101984.34
2023-01-12T08:45:50.091Z,101984.05
2023-01-12T08:48:56.008Z,101977.14
2023-01-12T08:52:03.050Z,101966.22
2023-01-12T08:55:09.157Z,101974.45
2023-01-12T08:58:16.341Z,101978.16
2023-01-12T09:01:27.122Z,101982.38
2023-01-12T09:04:33.094Z,101977.36
2023-01-12T09:07:40.858Z,101971.53
2023-01-12T09:10:46.747Z,101970.89
2023-01-12T09:13:52.943Z,101962.88
2023-01-12T09:16:59.597Z,101968.03
2023-01-12T09:20:05.529Z,101969.00
2023-01-12T09:23:05.411Z,101964.46
2023-01-12T09:26:12.473Z,101967.66
2023-01-12T09:29:19.261Z,101961.66
2023-01-12T09:32:29.160Z,101951.89
2023-01-12T09:35:33.012Z,101941.70
2023-01-12T09:38:40.551Z,101946.33
2023-01-12T09:42:09.577Z,101946.97
2023-01-12T09:45:34.041Z,101947.96
2023-01-12T09:48:39.805Z,101944.07
2023-01-12T09:51:54.369Z,101952.30
2023-01-12T09:55:25.165Z,101945.16
2023-01-12T09:58:56.192Z,101933.72
2023-01-12T10:02:03.493Z,101942.10
2023-01-12T10:05:09.077Z,101932.56
2023-01-12T10:08:17.427Z,101925.83
2023-01-12T10:11:43.411Z,101930.74
2023-01-12T10:15:03.228Z,101918.72
2023-01-12T10:18:25.663Z,101928.75
2023-01-12T10:21:31.093Z,101917.41
2023-01-12T10:24:43.382Z,101919.64
2023-01-12T10:27:52.047Z,101919.05
2023-01-12T10:30:59.876Z,101915.34
2023-01-12T10:34:23.732Z,101912.66
2023-01-12T10:37:28.849Z,101902.66
2023-01-12T10:40:45.527Z,101902.45
2023-01-12T10:43:53.455Z,101891.77
2023-01-12T10:46:59.956Z,101895.80
2023-01-12T10:50:12.280Z,101891.70
2023-01-12T10:53:22.550Z,101899.77
2023-01-12T11:00:39.910Z,101893.82
2023-01-12T11:03:51.704Z,101888.30
2023-01-12T11:06:58.835Z,101899.76
2023-01-12T11:10:07.339Z,101890.16
2023-01-12T11:13:16.093Z,101897.85
2023-01-12T11:16:37.544Z,101896.77
2023-01-12T11:19:52.301Z,101896.38
2023-01-12T11:22:59.073Z,101893.56
2023-01-12T11:26:05.484Z,101890.65
2023-01-12T11:29:17.343Z,101885.84
2023-01-12T11:32:34.158Z,101878.01
2023-01-12T11:35:51.153Z,101882.27
2023-01-12T11:39:01.587Z,101876.29
2023-01-12T11:42:30.105Z,101870.25
2023-01-12T11:45:49.984Z,101872.69
2023-01-12T11:49:29.281Z,101866.65
2023-01-12T11:52:34.823Z,101864.20
2023-01-12T11:56:08.768Z,101873.53
2023-01-12T11:59:41.668Z,101865.03
2023-01-12T12:03:24.263Z,101871.27
2023-01-12T12:07:04.026Z,101877.71
2023-01-12T12:10:30.755Z,101883.91
2023-01-12T12:14:05.368Z,101881.49
2023-01-12T12:17:41.613Z,101878.86
2023-01-12T12:21:31.538Z,101880.63
2023-01-12T12:25:07.352Z,101879.47
2023-01-12T12:28:43.189Z,101880.35
2023-01-12T12:32:29.188Z,101880.47
2023-01-12T12:35:50.390Z,101878.88
2023-01-12T12:39:17.636Z,101876.29
2023-01-12T12:43:05.231Z,101873.87
2023-01-12T12:49:37.422Z,101865.90
2023-01-12T12:52:47.388Z,101859.52
2023-01-12T12:55:59.503Z,101860.11
2023-01-12T12:59:09.848Z,101856.41
2023-01-12T13:02:17.408Z,101853.33
2023-01-12T13:05:25.120Z,101846.53
2023-01-12T13:08:39.809Z,101862.91
2023-01-12T13:12:14.401Z,101858.62
2023-01-12T13:15:44.260Z,101859.02
2023-01-12T13:19:09.506Z,101853.38
2023-01-12T13:22:41.127Z,101851.97
2023-01-12T13:25:52.222Z,101848.27
2023-01-12T13:28:58.346Z,101847.49
2023-01-12T13:32:05.373Z,101853.87
2023-01-12T13:35:10.880Z,101858.13
2023-01-12T13:38:39.191Z,101845.72
2023-01-12T13:42:08.860Z,101847.39
2023-01-12T13:45:14.134Z,101859.48
2023-01-12T13:48:21.350Z,101856.50
2023-01-12T13:51:54.197Z,101860.72
2023-01-12T13:55:05.812Z,101858.56
2023-01-12T13:58:19.226Z,101853.19
2023-01-12T14:01:43.736Z,101855.48
2023-01-12T14:05:06.328Z,101856.00
2023-01-12T14:08:46.330Z,101861.70
2023-01-12T14:12:30.019Z,101854.53
2023-01-12T14:16:20.616Z,101849.42
2023-01-12T14:19:43.490Z,101849.81
2023-01-12T14:22:49.928Z,101855.87
2023-01-12T14:25:56.020Z,101848.08
2023-01-12T14:29:02.233Z,101852.44
2023-01-12T14:32:08.196Z,101850.44
2023-01-12T14:35:13.699Z,101847.16
2023-01-12T14:38:19.297Z,101847.75
2023-01-12T14:41:53.928Z,101850.11
2023-01-12T14:45:29.274Z,101838.42
2023-01-12T14:48:41.166Z,101840.25
2023-01-12T14:51:51.389Z,101839.89
2023-01-12T14:54:56.500Z,101844.88
2023-01-12T14:58:08.801Z,101838.72
2023-01-12T15:01:17.606Z,101848.80
2023-01-12T15:04:36.911Z,101852.41
2023-01-12T15:07:48.185Z,101856.66
2023-01-12T15:10:56.946Z,101855.37
2023-01-12T15:14:12.363Z,101856.54
2023-01-12T15:17:36.106Z,101845.34
2023-01-12T15:21:00.538Z,101854.31
2023-01-12T15:24:23.891Z,101856.98
2023-01-12T15:27:33.219Z,101861.46
2023-01-12T15:30:41.009Z,101863.16
2023-01-12T15:33:47.678Z,101859.59
2023-01-12T15:36:54.462Z,101860.62
2023-01-12T15:40:03.584Z,101852.86
2023-01-12T15:43:11.672Z,101840.29
2023-01-12T15:46:19.041Z,101840.65
2023-01-12T15:49:26.397Z,101834.72
2023-01-12T15:52:36.686Z,101842.91
2023-01-12T15:55:42.285Z,101842.48
2023-01-12T15:58:48.849Z,101848.08
2023-01-12T16:01:58.781Z,101848.96
2023-01-12T16:05:03.952Z,101844.45
2023-01-12T16:08:10.012Z,101836.75
2023-01-12T16:11:18.580Z,101829.98
2023-01-12T16:14:24.497Z,101832.14
2023-01-12T16:17:30.119Z,101833.67
2023-01-12T16:20:36.939Z,101836.03
2023-01-12T16:23:44.750Z,101829.55
2023-01-12T16:26:52.327Z,101829.75
2023-01-12T16:30:00.088Z,101835.18
2023-01-12T16:33:05.871Z,101829.75
2023-01-12T16:36:14.369Z,101830.86
2023-01-12T16:39:20.137Z,101818.52
2023-01-12T16:42:25.375Z,101814.19
2023-01-12T16:45:31.075Z,101820.20
2023-01-12T16:48:38.614Z,101814.38
2023-01-12T16:51:44.991Z,101809.34
2023-01-12T16:54:50.033Z,101806.83
2023-01-12T16:57:57.263Z,101810.83
2023-01-12T17:01:04.884Z,101814.36
2023-01-12T17:04:12.087Z,101810.66
2023-01-12T17:07:17.889Z,101807.52
2023-01-12T17:10:17.616Z,101802.97
2023-01-12T17:13:04.345Z,101795.57
2023-01-12T17:15:59.190Z,101794.88
2023-01-12T17:19:07.319Z,101790.53
2023-01-12T17:22:13.232Z,101790.34
2023-01-12T17:25:21.521Z,101794.78
2023-01-12T17:28:27.545Z,101780.70
2023-01-12T17:31:34.509Z,101782.97
2023-01-12T17:34:40.865Z,101781.56
2023-01-12T17:37:46.787Z,101780.83
2023-01-12T17:40:54.002Z,101776.54
2023-01-12T17:44:00.528Z,101785.94
2023-01-12T17:47:05.893Z,101782.47
2023-01-12T17:50:11.059Z,101786.89
2023-01-12T17:53:17.235Z,101786.59
2023-01-12T17:56:24.176Z,101782.97
2023-01-12T17:59:34.572Z,101784.84
2023-01-12T18:02:40.957Z,101780.58
2023-01-12T18:05:57.740Z,101787.09
2023-01-12T18:08:55.469Z,101782.12
2023-01-12T18:12:03.079Z,101787.78
2023-01-12T18:15:12.445Z,101783.20
2023-01-12T18:18:19.368Z,101785.88
2023-01-12T18:21:27.775Z,101786.24
2023-01-12T18:24:32.809Z,101775.44
2023-01-12T18:27:40.830Z,101776.42
2023-01-12T18:30:45.693Z,101779.22
2023-01-12T18:33:52.493Z,101780.06
2023-01-12T18:36:59.219Z,101778.05
2023-01-12T18:40:04.864Z,101776.58
2023-01-12T18:43:11.444Z,101772.86
2023-01-12T18:46:20.510Z,101776.17
2023-01-12T18:49:26.449Z,101764.13
2023-01-12T18:52:51.191Z,101773.66
2023-01-12T18:55:59.068Z,101776.97
2023-01-12T18:59:06.888Z,101767.63
2023-01-12T19:02:13.781Z,101762.33
2023-01-12T19:05:28.346Z,101766.84
2023-01-12T19:08:52.712Z,101760.98
2023-01-12T19:11:59.328Z,101751.84
2023-01-12T19:15:24.056Z,101752.80
2023-01-12T19:18:30.234Z,101749.44
2023-01-12T19:22:00.534Z,101751.78
2023-01-12T19:25:23.809Z,101747.22
2023-01-12T19:28:43.160Z,101754.53
2023-01-12T19:31:49.222Z,101756.20
2023-01-12T19:35:02.269Z,101761.66
2023-01-12T19:38:05.040Z,101765.02
2023-01-12T19:41:20.582Z,101765.97
2023-01-12T19:44:26.716Z,101765.09
2023-01-12T19:47:32.676Z,101759.58
2023-01-12T19:50:40.116Z,101756.50
2023-01-12T19:53:45.271Z,101763.00
2023-01-12T19:56:52.919Z,101764.61
2023-01-12T19:59:58.250Z,101762.74
2023-01-12T20:03:07.455Z,101757.62
2023-01-12T20:06:20.503Z,101751.59
2023-01-12T20:09:27.485Z,101753.75
2023-01-12T20:12:34.253Z,101753.25
2023-01-12T20:15:39.818Z,101757.14
2023-01-12T20:18:46.606Z,101753.98
2023-01-12T20:21:53.725Z,101754.05
2023-01-12T20:25:01.368Z,101738.83
2023-01-12T20:28:09.284Z,101748.91
2023-01-12T20:31:16.121Z,101756.97
2023-01-12T20:34:22.482Z,101752.73
2023-01-12T20:37:29.642Z,101760.36
2023-01-12T20:40:36.034Z,101764.88
2023-01-12T20:43:44.738Z,101771.65
2023-01-12T20:46:51.661Z,101769.98
2023-01-12T20:49:58.934Z,101773.19
2023-01-12T20:53:04.432Z,101768.77
2023-01-12T20:56:11.492Z,101759.91
2023-01-12T20:59:19.559Z,101764.25
2023-01-12T21:02:33.000Z,101764.16
2023-01-12T21:05:40.235Z,101766.14
2023-01-12T21:08:46.713Z,101755.55
2023-01-12T21:11:54.354Z,101763.01
2023-01-12T21:15:01.567Z,101765.42
2023-01-12T21:18:07.187Z,101769.84
2023-01-12T21:21:12.961Z,101771.25
2023-01-12T21:24:18.118Z,101775.20
2023-01-12T21:27:25.011Z,101776.84
2023-01-12T21:30:33.115Z,101772.28
2023-01-12T21:33:39.184Z,101771.33
2023-01-12T21:36:46.778Z,101766.20
2023-01-12T21:39:52.919Z,101762.98
2023-01-12T21:43:19.618Z,101758.78
2023-01-12T21:46:25.875Z,101753.65
2023-01-12T21:49:32.064Z,101744.80
2023-01-12T21:52:39.813Z,101742.26
2023-01-12T21:55:46.185Z,101744.20
2023-01-12T21:58:52.306Z,101737.77
2023-01-12T22:01:57.945Z,101738.56
2023-01-12T22:05:03.982Z,101725.73
2023-01-12T22:08:12.118Z,101728.95
2023-01-12T22:11:27.945Z,101728.84
2023-01-12T22:14:35.421Z,101727.44
2023-01-12T22:17:41.291Z,101727.30
2023-01-12T22:20:48.989Z,101720.91
2023-01-12T22:23:54.795Z,101722.06
2023-01-12T22:27:02.352Z,101718.34
2023-01-12T22:30:08.695Z,101716.22
2023-01-12T22:33:13.765Z,101723.03
2023-01-12T22:36:20.531Z,101724.05
2023-01-12T22:39:27.910Z,101713.70
2023-01-12T22:42:36.684Z,101717.14
2023-01-12T22:45:45.665Z,101714.38
2023-01-12T22:48:51.258Z,101709.48
2023-01-12T22:51:57.549Z,101711.89
2023-01-12T22:55:04.709Z,101703.84
2023-01-12T22:58:12.785Z,101710.30
2023-01-12T23:01:23.713Z,101700.02
2023-01-12T23:04:30.682Z,101699.31
2023-01-12T23:07:36.522Z,101705.39
2023-01-12T23:10:43.186Z,101698.61
2023-01-12T23:13:49.700Z,101691.51
2023-01-12T23:16:55.156Z,101697.48
2023-01-12T23:20:00.977Z,101702.86
2023-01-12T23:23:07.778Z,101705.27
2023-01-12T23:26:21.473Z,101707.73
2023-01-12T23:29:27.910Z,101709.15
2023-01-12T23:32:34.095Z,101716.31
2023-01-12T23:35:43.335Z,101713.95
2023-01-12T23:38:51.702Z,101721.58
2023-01-12T23:41:57.807Z,101717.68
2023-01-12T23:45:04.283Z,101724.69
2023-01-12T23:48:13.499Z,101721.72
2023-01-12T23:51:20.603Z,101727.77
2023-01-12T23:54:28.867Z,101730.36
2023-01-12T23:57:35.793Z,101722.09
